sensor_id;sensor_type;location;lat;lon;timestamp;P1;durP1;ratioP1;P2;durP2;ratioP2
62459;SDS011;48510;39.364;-9.378;2022-07-12T00:01:05;24.38;;;8.00;;
62459;SDS011;48510;39.364;-9.378;2022-07-12T00:03:06;30.00;;;8.45;;
62459;SDS011;48510;39.364;-9.378;2022-07-12T00:05:06;26.08;;;7.70;;
62459;SDS011;48510;39.364;-9.378;2022-07-12T00:07:07;24.35;;;8.00;;
62459;SDS011;48510;39.364;-9.378;2022-07-12T00:09:09;24.77;;;8.43;;
62459;SDS011;48510;39.364;-9.378;2022-07-12T00:11:09;27.88;;;8.65;;
62459;SDS011;48510;39.364;-9.378;2022-07-12T00:13:10;23.55;;;8.20;;
62459;SDS011;48510;39.364;-9.378;2022-07-12T00:15:11;24.77;;;8.32;;
62459;SDS011;48510;39.364;-9.378;2022-07-12T00:17:11;31.65;;;8.73;;
62459;SDS011;48510;39.364;-9.378;2022-07-12T00:19:12;26.75;;;8.90;;
62459;SDS011;48510;39.364;-9.378;2022-07-12T00:21:13;21.75;;;8.48;;
62459;SDS011;48510;39.364;-9.378;2022-07-12T00:23:13;25.05;;;8.25;;
62459;SDS011;48510;39.364;-9.378;2022-07-12T00:25:14;26.30;;;8.45;;
62459;SDS011;48510;39.364;-9.378;2022-07-12T00:27:14;27.92;;;8.60;;
62459;SDS011;48510;39.364;-9.378;2022-07-12T00:29:15;23.80;;;8.27;;
62459;SDS011;48510;39.364;-9.378;2022-07-12T00:31:16;28.23;;;9.63;;
62459;SDS011;48510;39.364;-9.378;2022-07-12T00:33:17;23.83;;;7.88;;
62459;SDS011;48510;39.364;-9.378;2022-07-12T00:35:17;26.42;;;9.10;;
62459;SDS011;48510;39.364;-9.378;2022-07-12T00:37:18;25.65;;;8.93;;
62459;SDS011;48510;39.364;-9.378;2022-07-12T00:39:20;25.58;;;8.60;;
62459;SDS011;48510;39.364;-9.378;2022-07-12T00:41:21;22.77;;;8.32;;
62459;SDS011;48510;39.364;-9.378;2022-07-12T00:43:21;23.88;;;8.77;;
62459;SDS011;48510;39.364;-9.378;2022-07-12T00:45:22;21.73;;;8.40;;
62459;SDS011;48510;39.364;-9.378;2022-07-12T00:47:44;26.13;;;8.10;;
62459;SDS011;48510;39.364;-9.378;2022-07-12T00:49:45;22.25;;;8.20;;
62459;SDS011;48510;39.364;-9.378;2022-07-12T00:51:46;26.23;;;8.82;;
62459;SDS011;48510;39.364;-9.378;2022-07-12T00:53:48;25.70;;;8.25;;
62459;SDS011;48510;39.364;-9.378;2022-07-12T00:55:52;22.60;;;8.10;;
62459;SDS011;48510;39.364;-9.378;2022-07-12T00:57:56;21.38;;;8.43;;
62459;SDS011;48510;39.364;-9.378;2022-07-12T00:59:57;29.80;;;8.88;;
62459;SDS011;48510;39.364;-9.378;2022-07-12T01:01:58;23.65;;;8.50;;
62459;SDS011;48510;39.364;-9.378;2022-07-12T01:03:58;27.08;;;8.55;;
62459;SDS011;48510;39.364;-9.378;2022-07-12T01:06:01;28.25;;;8.77;;
62459;SDS011;48510;39.364;-9.378;2022-07-12T01:08:02;28.15;;;8.60;;
62459;SDS011;48510;39.364;-9.378;2022-07-12T01:10:04;28.63;;;8.98;;
62459;SDS011;48510;39.364;-9.378;2022-07-12T01:12:06;22.67;;;9.15;;
62459;SDS011;48510;39.364;-9.378;2022-07-12T01:14:08;28.48;;;9.10;;
62459;SDS011;48510;39.364;-9.378;2022-07-12T01:16:08;23.33;;;8.02;;
62459;SDS011;48510;39.364;-9.378;2022-07-12T01:18:11;26.42;;;9.35;;
62459;SDS011;48510;39.364;-9.378;2022-07-12T01:20:13;26.50;;;8.40;;
62459;SDS011;48510;39.364;-9.378;2022-07-12T01:22:14;27.98;;;8.43;;
62459;SDS011;48510;39.364;-9.378;2022-07-12T01:24:20;22.20;;;8.55;;
62459;SDS011;48510;39.364;-9.378;2022-07-12T01:26:21;28.98;;;9.13;;
62459;SDS011;48510;39.364;-9.378;2022-07-12T01:28:22;24.92;;;9.32;;
62459;SDS011;48510;39.364;-9.378;2022-07-12T01:30:22;25.38;;;8.80;;
62459;SDS011;48510;39.364;-9.378;2022-07-12T01:32:23;25.35;;;8.07;;
62459;SDS011;48510;39.364;-9.378;2022-07-12T01:34:27;24.95;;;8.48;;
62459;SDS011;48510;39.364;-9.378;2022-07-12T01:36:28;27.13;;;9.15;;
62459;SDS011;48510;39.364;-9.378;2022-07-12T01:38:30;24.25;;;9.35;;
62459;SDS011;48510;39.364;-9.378;2022-07-12T01:40:31;22.25;;;8.73;;
62459;SDS011;48510;39.364;-9.378;2022-07-12T01:42:32;25.90;;;8.23;;
62459;SDS011;48510;39.364;-9.378;2022-07-12T01:44:33;24.65;;;8.73;;
62459;SDS011;48510;39.364;-9.378;2022-07-12T01:46:34;27.20;;;9.10;;
62459;SDS011;48510;39.364;-9.378;2022-07-12T01:48:35;25.50;;;9.38;;
62459;SDS011;48510;39.364;-9.378;2022-07-12T01:50:36;28.98;;;8.43;;
62459;SDS011;48510;39.364;-9.378;2022-07-12T01:52:38;27.58;;;9.27;;
62459;SDS011;48510;39.364;-9.378;2022-07-12T01:54:40;22.95;;;8.30;;
62459;SDS011;48510;39.364;-9.378;2022-07-12T01:56:42;29.42;;;9.30;;
62459;SDS011;48510;39.364;-9.378;2022-07-12T01:58:43;24.30;;;8.70;;
62459;SDS011;48510;39.364;-9.378;2022-07-12T02:00:44;29.52;;;8.63;;
62459;SDS011;48510;39.364;-9.378;2022-07-12T02:02:51;27.13;;;9.10;;
62459;SDS011;48510;39.364;-9.378;2022-07-12T02:04:52;30.13;;;9.23;;
62459;SDS011;48510;39.364;-9.378;2022-07-12T02:06:54;27.20;;;8.32;;
62459;SDS011;48510;39.364;-9.378;2022-07-12T02:08:55;33.95;;;9.07;;
62459;SDS011;48510;39.364;-9.378;2022-07-12T02:10:56;28.02;;;8.88;;
62459;SDS011;48510;39.364;-9.378;2022-07-12T02:12:57;25.80;;;9.05;;
62459;SDS011;48510;39.364;-9.378;2022-07-12T02:14:59;26.67;;;9.13;;
62459;SDS011;48510;39.364;-9.378;2022-07-12T02:17:00;30.85;;;9.55;;
62459;SDS011;48510;39.364;-9.378;2022-07-12T02:19:01;25.63;;;9.13;;
62459;SDS011;48510;39.364;-9.378;2022-07-12T02:21:02;20.58;;;7.72;;
62459;SDS011;48510;39.364;-9.378;2022-07-12T02:23:03;22.48;;;7.68;;
62459;SDS011;48510;39.364;-9.378;2022-07-12T02:25:04;28.73;;;9.05;;
62459;SDS011;48510;39.364;-9.378;2022-07-12T02:27:05;27.48;;;9.07;;
62459;SDS011;48510;39.364;-9.378;2022-07-12T02:29:06;28.55;;;9.00;;
62459;SDS011;48510;39.364;-9.378;2022-07-12T02:31:07;26.02;;;8.32;;
62459;SDS011;48510;39.364;-9.378;2022-07-12T02:33:08;34.58;;;8.50;;
62459;SDS011;48510;39.364;-9.378;2022-07-12T02:35:09;30.23;;;9.02;;
62459;SDS011;48510;39.364;-9.378;2022-07-12T02:37:10;30.17;;;9.27;;
62459;SDS011;48510;39.364;-9.378;2022-07-12T02:39:10;27.20;;;8.63;;
62459;SDS011;48510;39.364;-9.378;2022-07-12T02:41:11;22.65;;;8.82;;
62459;SDS011;48510;39.364;-9.378;2022-07-12T02:43:12;25.52;;;8.90;;
62459;SDS011;48510;39.364;-9.378;2022-07-12T02:45:12;31.50;;;9.45;;
62459;SDS011;48510;39.364;-9.378;2022-07-12T02:47:13;28.20;;;9.43;;
62459;SDS011;48510;39.364;-9.378;2022-07-12T02:49:14;29.98;;;9.43;;
62459;SDS011;48510;39.364;-9.378;2022-07-12T02:51:15;28.17;;;9.30;;
62459;SDS011;48510;39.364;-9.378;2022-07-12T02:53:15;32.45;;;9.55;;
62459;SDS011;48510;39.364;-9.378;2022-07-12T02:55:16;37.15;;;9.82;;
62459;SDS011;48510;39.364;-9.378;2022-07-12T02:57:17;33.78;;;9.55;;
62459;SDS011;48510;39.364;-9.378;2022-07-12T02:59:17;25.23;;;9.35;;
62459;SDS011;48510;39.364;-9.378;2022-07-12T03:01:19;27.67;;;9.13;;
62459;SDS011;48510;39.364;-9.378;2022-07-12T03:03:20;24.65;;;9.13;;
62459;SDS011;48510;39.364;-9.378;2022-07-12T03:05:21;26.52;;;8.85;;
62459;SDS011;48510;39.364;-9.378;2022-07-12T03:07:22;26.83;;;9.30;;
62459;SDS011;48510;39.364;-9.378;2022-07-12T03:09:23;30.27;;;9.85;;
62459;SDS011;48510;39.364;-9.378;2022-07-12T03:11:23;27.65;;;8.75;;
62459;SDS011;48510;39.364;-9.378;2022-07-12T03:13:24;31.75;;;9.65;;
62459;SDS011;48510;39.364;-9.378;2022-07-12T03:15:25;31.17;;;9.93;;
62459;SDS011;48510;39.364;-9.378;2022-07-12T03:17:28;31.85;;;9.13;;
62459;SDS011;48510;39.364;-9.378;2022-07-12T03:19:28;34.03;;;9.98;;
62459;SDS011;48510;39.364;-9.378;2022-07-12T03:21:29;32.72;;;9.70;;
62459;SDS011;48510;39.364;-9.378;2022-07-12T03:23:30;28.30;;;9.93;;
62459;SDS011;48510;39.364;-9.378;2022-07-12T03:25:31;32.22;;;9.82;;
62459;SDS011;48510;39.364;-9.378;2022-07-12T03:27:32;30.27;;;9.50;;
62459;SDS011;48510;39.364;-9.378;2022-07-12T03:29:32;33.55;;;10.48;;
62459;SDS011;48510;39.364;-9.378;2022-07-12T03:31:33;33.90;;;10.45;;
62459;SDS011;48510;39.364;-9.378;2022-07-12T03:33:34;30.75;;;9.95;;
62459;SDS011;48510;39.364;-9.378;2022-07-12T03:35:35;33.22;;;10.43;;
62459;SDS011;48510;39.364;-9.378;2022-07-12T03:37:40;29.98;;;10.55;;
62459;SDS011;48510;39.364;-9.378;2022-07-12T03:39:42;34.58;;;10.75;;
62459;SDS011;48510;39.364;-9.378;2022-07-12T03:41:43;32.20;;;10.23;;
62459;SDS011;48510;39.364;-9.378;2022-07-12T03:43:43;35.15;;;10.75;;
62459;SDS011;48510;39.364;-9.378;2022-07-12T03:45:44;39.75;;;10.07;;
62459;SDS011;48510;39.364;-9.378;2022-07-12T03:47:45;29.30;;;9.98;;
62459;SDS011;48510;39.364;-9.378;2022-07-12T03:49:48;30.30;;;9.95;;
62459;SDS011;48510;39.364;-9.378;2022-07-12T03:51:49;37.95;;;10.68;;
62459;SDS011;48510;39.364;-9.378;2022-07-12T03:53:49;29.80;;;9.50;;
62459;SDS011;48510;39.364;-9.378;2022-07-12T03:55:50;27.80;;;10.32;;
62459;SDS011;48510;39.364;-9.378;2022-07-12T03:57:51;33.90;;;10.35;;
62459;SDS011;48510;39.364;-9.378;2022-07-12T03:59:52;31.80;;;10.15;;
62459;SDS011;48510;39.364;-9.378;2022-07-12T04:01:53;38.58;;;10.68;;
62459;SDS011;48510;39.364;-9.378;2022-07-12T04:03:54;44.42;;;11.65;;
62459;SDS011;48510;39.364;-9.378;2022-07-12T04:05:56;36.00;;;11.07;;
62459;SDS011;48510;39.364;-9.378;2022-07-12T04:07:56;29.73;;;10.23;;
62459;SDS011;48510;39.364;-9.378;2022-07-12T04:09:57;36.03;;;10.45;;
62459;SDS011;48510;39.364;-9.378;2022-07-12T04:11:58;28.85;;;10.43;;
62459;SDS011;48510;39.364;-9.378;2022-07-12T04:13:59;36.60;;;11.10;;
62459;SDS011;48510;39.364;-9.378;2022-07-12T04:16:00;29.52;;;10.20;;
62459;SDS011;48510;39.364;-9.378;2022-07-12T04:18:00;31.92;;;11.02;;
62459;SDS011;48510;39.364;-9.378;2022-07-12T04:20:01;28.67;;;10.35;;
62459;SDS011;48510;39.364;-9.378;2022-07-12T04:22:02;26.13;;;9.80;;
62459;SDS011;48510;39.364;-9.378;2022-07-12T04:24:03;25.15;;;9.85;;
62459;SDS011;48510;39.364;-9.378;2022-07-12T04:26:05;32.08;;;9.80;;
62459;SDS011;48510;39.364;-9.378;2022-07-12T04:28:06;31.40;;;10.27;;
62459;SDS011;48510;39.364;-9.378;2022-07-12T04:30:07;33.95;;;10.10;;
62459;SDS011;48510;39.364;-9.378;2022-07-12T04:32:08;30.42;;;10.35;;
62459;SDS011;48510;39.364;-9.378;2022-07-12T04:34:09;27.52;;;10.20;;
62459;SDS011;48510;39.364;-9.378;2022-07-12T04:36:10;31.30;;;11.50;;
62459;SDS011;48510;39.364;-9.378;2022-07-12T04:38:11;32.80;;;10.35;;
62459;SDS011;48510;39.364;-9.378;2022-07-12T04:40:11;35.75;;;10.90;;
62459;SDS011;48510;39.364;-9.378;2022-07-12T04:42:12;36.00;;;10.25;;
62459;SDS011;48510;39.364;-9.378;2022-07-12T04:44:13;44.05;;;10.57;;
62459;SDS011;48510;39.364;-9.378;2022-07-12T04:46:13;39.40;;;10.40;;
62459;SDS011;48510;39.364;-9.378;2022-07-12T04:48:14;36.05;;;10.27;;
62459;SDS011;48510;39.364;-9.378;2022-07-12T04:50:16;29.58;;;10.63;;
62459;SDS011;48510;39.364;-9.378;2022-07-12T04:52:17;38.45;;;11.00;;
62459;SDS011;48510;39.364;-9.378;2022-07-12T04:54:17;40.22;;;11.35;;
62459;SDS011;48510;39.364;-9.378;2022-07-12T04:56:18;38.20;;;11.30;;
62459;SDS011;48510;39.364;-9.378;2022-07-12T04:58:19;45.17;;;11.73;;
62459;SDS011;48510;39.364;-9.378;2022-07-12T05:00:20;51.13;;;12.88;;
62459;SDS011;48510;39.364;-9.378;2022-07-12T05:02:21;35.35;;;10.82;;
62459;SDS011;48510;39.364;-9.378;2022-07-12T05:04:21;36.13;;;12.25;;
62459;SDS011;48510;39.364;-9.378;2022-07-12T05:06:22;35.10;;;11.25;;
62459;SDS011;48510;39.364;-9.378;2022-07-12T05:08:23;47.67;;;11.35;;
62459;SDS011;48510;39.364;-9.378;2022-07-12T05:10:23;38.65;;;11.13;;
62459;SDS011;48510;39.364;-9.378;2022-07-12T05:12:24;44.40;;;11.35;;
62459;SDS011;48510;39.364;-9.378;2022-07-12T05:14:25;39.95;;;11.15;;
62459;SDS011;48510;39.364;-9.378;2022-07-12T05:16:25;34.25;;;10.68;;
62459;SDS011;48510;39.364;-9.378;2022-07-12T05:18:27;41.22;;;11.32;;
62459;SDS011;48510;39.364;-9.378;2022-07-12T05:20:28;32.20;;;10.07;;
62459;SDS011;48510;39.364;-9.378;2022-07-12T05:22:29;38.75;;;10.55;;
62459;SDS011;48510;39.364;-9.378;2022-07-12T05:24:29;38.47;;;11.38;;
62459;SDS011;48510;39.364;-9.378;2022-07-12T05:26:30;30.90;;;10.70;;
62459;SDS011;48510;39.364;-9.378;2022-07-12T05:28:31;26.55;;;10.27;;
62459;SDS011;48510;39.364;-9.378;2022-07-12T05:30:32;31.42;;;10.90;;
62459;SDS011;48510;39.364;-9.378;2022-07-12T05:32:33;27.33;;;10.48;;
62459;SDS011;48510;39.364;-9.378;2022-07-12T05:34:34;30.30;;;10.55;;
62459;SDS011;48510;39.364;-9.378;2022-07-12T05:36:34;28.85;;;10.70;;
62459;SDS011;48510;39.364;-9.378;2022-07-12T05:38:35;25.33;;;10.10;;
62459;SDS011;48510;39.364;-9.378;2022-07-12T05:40:36;28.42;;;10.48;;
62459;SDS011;48510;39.364;-9.378;2022-07-12T05:42:36;26.80;;;10.15;;
62459;SDS011;48510;39.364;-9.378;2022-07-12T05:44:37;34.75;;;11.50;;
62459;SDS011;48510;39.364;-9.378;2022-07-12T05:46:38;32.63;;;10.35;;
62459;SDS011;48510;39.364;-9.378;2022-07-12T05:48:41;35.88;;;11.43;;
62459;SDS011;48510;39.364;-9.378;2022-07-12T05:50:41;29.30;;;11.40;;
62459;SDS011;48510;39.364;-9.378;2022-07-12T05:52:42;30.83;;;11.18;;
62459;SDS011;48510;39.364;-9.378;2022-07-12T05:55:01;38.13;;;12.95;;
62459;SDS011;48510;39.364;-9.378;2022-07-12T05:57:03;31.38;;;11.88;;
62459;SDS011;48510;39.364;-9.378;2022-07-12T05:59:03;30.48;;;11.32;;
62459;SDS011;48510;39.364;-9.378;2022-07-12T06:01:04;30.65;;;10.70;;
62459;SDS011;48510;39.364;-9.378;2022-07-12T06:03:05;33.83;;;11.45;;
62459;SDS011;48510;39.364;-9.378;2022-07-12T06:05:06;36.38;;;12.50;;
62459;SDS011;48510;39.364;-9.378;2022-07-12T06:07:07;34.97;;;11.98;;
62459;SDS011;48510;39.364;-9.378;2022-07-12T06:09:09;29.20;;;12.07;;
62459;SDS011;48510;39.364;-9.378;2022-07-12T06:11:09;34.60;;;12.50;;
62459;SDS011;48510;39.364;-9.378;2022-07-12T06:13:10;45.63;;;12.80;;
62459;SDS011;48510;39.364;-9.378;2022-07-12T06:15:11;41.22;;;13.10;;
62459;SDS011;48510;39.364;-9.378;2022-07-12T06:17:11;42.72;;;11.68;;
62459;SDS011;48510;39.364;-9.378;2022-07-12T06:19:12;43.67;;;13.32;;
62459;SDS011;48510;39.364;-9.378;2022-07-12T06:21:13;46.10;;;13.18;;
62459;SDS011;48510;39.364;-9.378;2022-07-12T06:23:14;56.65;;;14.85;;
62459;SDS011;48510;39.364;-9.378;2022-07-12T06:25:14;60.15;;;15.02;;
62459;SDS011;48510;39.364;-9.378;2022-07-12T06:27:15;57.20;;;14.40;;
62459;SDS011;48510;39.364;-9.378;2022-07-12T06:29:16;52.47;;;14.02;;
62459;SDS011;48510;39.364;-9.378;2022-07-12T06:31:17;47.38;;;14.45;;
62459;SDS011;48510;39.364;-9.378;2022-07-12T06:33:17;47.35;;;14.27;;
62459;SDS011;48510;39.364;-9.378;2022-07-12T06:35:18;54.08;;;14.15;;
62459;SDS011;48510;39.364;-9.378;2022-07-12T06:37:19;61.88;;;14.77;;
62459;SDS011;48510;39.364;-9.378;2022-07-12T06:39:19;48.42;;;14.25;;
62459;SDS011;48510;39.364;-9.378;2022-07-12T06:41:20;42.05;;;12.68;;
62459;SDS011;48510;39.364;-9.378;2022-07-12T06:43:21;42.42;;;12.70;;
62459;SDS011;48510;39.364;-9.378;2022-07-12T06:45:22;40.45;;;12.32;;
62459;SDS011;48510;39.364;-9.378;2022-07-12T06:47:23;41.25;;;13.13;;
62459;SDS011;48510;39.364;-9.378;2022-07-12T06:49:24;41.97;;;13.48;;
62459;SDS011;48510;39.364;-9.378;2022-07-12T06:51:25;42.10;;;12.60;;
62459;SDS011;48510;39.364;-9.378;2022-07-12T06:53:26;39.13;;;12.57;;
62459;SDS011;48510;39.364;-9.378;2022-07-12T06:55:26;35.72;;;11.88;;
62459;SDS011;48510;39.364;-9.378;2022-07-12T06:57:27;39.90;;;12.65;;
62459;SDS011;48510;39.364;-9.378;2022-07-12T06:59:30;32.42;;;11.23;;
62459;SDS011;48510;39.364;-9.378;2022-07-12T07:01:30;32.97;;;10.43;;
62459;SDS011;48510;39.364;-9.378;2022-07-12T07:03:31;28.70;;;10.40;;
62459;SDS011;48510;39.364;-9.378;2022-07-12T07:05:32;31.58;;;10.32;;
62459;SDS011;48510;39.364;-9.378;2022-07-12T07:07:33;33.75;;;10.30;;
62459;SDS011;48510;39.364;-9.378;2022-07-12T07:09:33;26.60;;;9.70;;
62459;SDS011;48510;39.364;-9.378;2022-07-12T07:11:34;33.35;;;9.95;;
62459;SDS011;48510;39.364;-9.378;2022-07-12T07:13:36;24.85;;;9.00;;
62459;SDS011;48510;39.364;-9.378;2022-07-12T07:15:39;27.60;;;9.48;;
62459;SDS011;48510;39.364;-9.378;2022-07-12T07:17:41;26.00;;;9.07;;
62459;SDS011;48510;39.364;-9.378;2022-07-12T07:19:43;28.00;;;9.05;;
62459;SDS011;48510;39.364;-9.378;2022-07-12T07:21:44;28.60;;;9.68;;
62459;SDS011;48510;39.364;-9.378;2022-07-12T07:23:45;31.27;;;9.38;;
62459;SDS011;48510;39.364;-9.378;2022-07-12T07:25:45;26.10;;;8.95;;
62459;SDS011;48510;39.364;-9.378;2022-07-12T07:27:46;24.02;;;8.85;;
62459;SDS011;48510;39.364;-9.378;2022-07-12T07:29:47;26.08;;;8.80;;
62459;SDS011;48510;39.364;-9.378;2022-07-12T07:32:06;24.10;;;9.23;;
62459;SDS011;48510;39.364;-9.378;2022-07-12T07:34:07;26.70;;;8.82;;
62459;SDS011;48510;39.364;-9.378;2022-07-12T07:36:08;20.90;;;8.85;;
62459;SDS011;48510;39.364;-9.378;2022-07-12T07:38:08;20.80;;;8.38;;
62459;SDS011;48510;39.364;-9.378;2022-07-12T07:40:10;18.88;;;8.07;;
62459;SDS011;48510;39.364;-9.378;2022-07-12T07:42:10;22.83;;;8.23;;
62459;SDS011;48510;39.364;-9.378;2022-07-12T07:44:11;20.50;;;9.00;;
62459;SDS011;48510;39.364;-9.378;2022-07-12T07:46:12;19.80;;;8.02;;
62459;SDS011;48510;39.364;-9.378;2022-07-12T07:48:13;19.38;;;8.65;;
62459;SDS011;48510;39.364;-9.378;2022-07-12T07:50:14;21.42;;;8.68;;
62459;SDS011;48510;39.364;-9.378;2022-07-12T07:52:15;22.08;;;8.45;;
62459;SDS011;48510;39.364;-9.378;2022-07-12T07:54:15;21.33;;;8.20;;
62459;SDS011;48510;39.364;-9.378;2022-07-12T07:56:16;20.25;;;7.95;;
62459;SDS011;48510;39.364;-9.378;2022-07-12T07:58:17;22.17;;;8.52;;
62459;SDS011;48510;39.364;-9.378;2022-07-12T08:00:18;26.05;;;8.65;;
62459;SDS011;48510;39.364;-9.378;2022-07-12T08:02:18;26.10;;;8.23;;
62459;SDS011;48510;39.364;-9.378;2022-07-12T08:04:19;21.00;;;8.73;;
62459;SDS011;48510;39.364;-9.378;2022-07-12T08:06:21;26.15;;;9.30;;
62459;SDS011;48510;39.364;-9.378;2022-07-12T08:08:22;28.30;;;9.52;;
62459;SDS011;48510;39.364;-9.378;2022-07-12T08:10:23;30.40;;;9.48;;
62459;SDS011;48510;39.364;-9.378;2022-07-12T08:12:24;33.30;;;10.57;;
62459;SDS011;48510;39.364;-9.378;2022-07-12T08:14:24;30.00;;;10.15;;
62459;SDS011;48510;39.364;-9.378;2022-07-12T08:16:25;29.58;;;8.93;;
62459;SDS011;48510;39.364;-9.378;2022-07-12T08:18:26;34.00;;;10.00;;
62459;SDS011;48510;39.364;-9.378;2022-07-12T08:20:28;25.67;;;8.45;;
62459;SDS011;48510;39.364;-9.378;2022-07-12T08:22:29;20.52;;;7.72;;
62459;SDS011;48510;39.364;-9.378;2022-07-12T08:24:30;28.52;;;8.90;;
62459;SDS011;48510;39.364;-9.378;2022-07-12T08:26:30;29.25;;;9.60;;
62459;SDS011;48510;39.364;-9.378;2022-07-12T08:28:31;29.05;;;9.43;;
62459;SDS011;48510;39.364;-9.378;2022-07-12T08:30:32;25.13;;;9.25;;
62459;SDS011;48510;39.364;-9.378;2022-07-12T08:32:33;35.92;;;10.43;;
62459;SDS011;48510;39.364;-9.378;2022-07-12T08:34:34;25.73;;;8.95;;
62459;SDS011;48510;39.364;-9.378;2022-07-12T08:36:34;23.15;;;7.97;;
62459;SDS011;48510;39.364;-9.378;2022-07-12T08:38:35;33.15;;;10.48;;
62459;SDS011;48510;39.364;-9.378;2022-07-12T08:40:37;24.88;;;8.35;;
62459;SDS011;48510;39.364;-9.378;2022-07-12T08:42:41;25.40;;;7.70;;
62459;SDS011;48510;39.364;-9.378;2022-07-12T08:44:43;21.70;;;8.10;;
62459;SDS011;48510;39.364;-9.378;2022-07-12T08:46:43;22.13;;;8.32;;
62459;SDS011;48510;39.364;-9.378;2022-07-12T08:48:47;22.73;;;7.75;;
62459;SDS011;48510;39.364;-9.378;2022-07-12T08:51:00;25.10;;;8.73;;
62459;SDS011;48510;39.364;-9.378;2022-07-12T08:53:03;29.45;;;8.82;;
62459;SDS011;48510;39.364;-9.378;2022-07-12T08:57:30;22.80;;;8.63;;
62459;SDS011;48510;39.364;-9.378;2022-07-12T08:59:31;29.63;;;9.93;;
62459;SDS011;48510;39.364;-9.378;2022-07-12T09:01:39;26.55;;;8.52;;
62459;SDS011;48510;39.364;-9.378;2022-07-12T09:03:43;26.83;;;8.93;;
62459;SDS011;48510;39.364;-9.378;2022-07-12T09:05:53;20.63;;;7.95;;
62459;SDS011;48510;39.364;-9.378;2022-07-12T09:08:02;16.90;;;7.60;;
62459;SDS011;48510;39.364;-9.378;2022-07-12T09:10:07;16.05;;;6.88;;
62459;SDS011;48510;39.364;-9.378;2022-07-12T09:12:21;20.35;;;7.35;;
62459;SDS011;48510;39.364;-9.378;2022-07-12T09:14:23;17.60;;;7.50;;
62459;SDS011;48510;39.364;-9.378;2022-07-12T09:16:24;16.23;;;7.60;;
62459;SDS011;48510;39.364;-9.378;2022-07-12T09:18:26;17.88;;;7.07;;
62459;SDS011;48510;39.364;-9.378;2022-07-12T09:20:29;15.25;;;7.15;;
62459;SDS011;48510;39.364;-9.378;2022-07-12T09:22:34;17.10;;;7.53;;
62459;SDS011;48510;39.364;-9.378;2022-07-12T09:24:35;15.57;;;7.38;;
62459;SDS011;48510;39.364;-9.378;2022-07-12T09:26:37;15.82;;;7.00;;
62459;SDS011;48510;39.364;-9.378;2022-07-12T09:28:37;22.83;;;8.95;;
62459;SDS011;48510;39.364;-9.378;2022-07-12T09:30:46;29.30;;;9.50;;
62459;SDS011;48510;39.364;-9.378;2022-07-12T09:32:49;22.88;;;9.05;;
62459;SDS011;48510;39.364;-9.378;2022-07-12T09:35:10;20.90;;;8.75;;
62459;SDS011;48510;39.364;-9.378;2022-07-12T09:37:32;19.67;;;8.38;;
62459;SDS011;48510;39.364;-9.378;2022-07-12T09:39:40;22.30;;;8.93;;
62459;SDS011;48510;39.364;-9.378;2022-07-12T09:41:40;18.00;;;8.32;;
62459;SDS011;48510;39.364;-9.378;2022-07-12T09:43:42;17.13;;;8.00;;
62459;SDS011;48510;39.364;-9.378;2022-07-12T09:45:42;20.08;;;8.20;;
62459;SDS011;48510;39.364;-9.378;2022-07-12T09:47:44;19.65;;;7.70;;
62459;SDS011;48510;39.364;-9.378;2022-07-12T09:49:45;18.20;;;8.02;;
62459;SDS011;48510;39.364;-9.378;2022-07-12T09:51:46;16.38;;;7.90;;
62459;SDS011;48510;39.364;-9.378;2022-07-12T09:53:49;15.73;;;7.82;;
62459;SDS011;48510;39.364;-9.378;2022-07-12T09:55:52;21.35;;;8.65;;
62459;SDS011;48510;39.364;-9.378;2022-07-12T09:57:53;21.85;;;9.05;;
62459;SDS011;48510;39.364;-9.378;2022-07-12T10:01:58;15.70;;;8.40;;
62459;SDS011;48510;39.364;-9.378;2022-07-12T10:04:04;16.58;;;8.85;;
62459;SDS011;48510;39.364;-9.378;2022-07-12T10:06:06;18.55;;;8.63;;
62459;SDS011;48510;39.364;-9.378;2022-07-12T10:08:07;17.35;;;8.45;;
62459;SDS011;48510;39.364;-9.378;2022-07-12T10:10:09;22.05;;;8.88;;
62459;SDS011;48510;39.364;-9.378;2022-07-12T10:12:11;21.45;;;9.02;;
62459;SDS011;48510;39.364;-9.378;2022-07-12T10:14:15;21.55;;;8.40;;
62459;SDS011;48510;39.364;-9.378;2022-07-12T10:16:24;18.95;;;8.45;;
62459;SDS011;48510;39.364;-9.378;2022-07-12T10:18:29;21.38;;;9.05;;
62459;SDS011;48510;39.364;-9.378;2022-07-12T10:20:30;20.35;;;8.18;;
62459;SDS011;48510;39.364;-9.378;2022-07-12T10:22:31;17.98;;;7.78;;
62459;SDS011;48510;39.364;-9.378;2022-07-12T10:26:38;18.73;;;8.75;;
62459;SDS011;48510;39.364;-9.378;2022-07-12T10:31:04;19.65;;;9.77;;
62459;SDS011;48510;39.364;-9.378;2022-07-12T10:33:14;17.40;;;8.65;;
62459;SDS011;48510;39.364;-9.378;2022-07-12T10:35:23;25.30;;;13.45;;
62459;SDS011;48510;39.364;-9.378;2022-07-12T10:37:25;24.85;;;10.65;;
62459;SDS011;48510;39.364;-9.378;2022-07-12T10:39:26;24.70;;;14.23;;
62459;SDS011;48510;39.364;-9.378;2022-07-12T10:41:28;26.17;;;13.70;;
62459;SDS011;48510;39.364;-9.378;2022-07-12T10:43:29;23.80;;;12.45;;
62459;SDS011;48510;39.364;-9.378;2022-07-12T10:45:59;20.20;;;8.63;;
62459;SDS011;48510;39.364;-9.378;2022-07-12T10:50:14;21.52;;;8.88;;
62459;SDS011;48510;39.364;-9.378;2022-07-12T10:52:16;24.85;;;8.82;;
62459;SDS011;48510;39.364;-9.378;2022-07-12T10:54:22;19.60;;;8.20;;
62459;SDS011;48510;39.364;-9.378;2022-07-12T10:56:24;16.95;;;7.82;;
62459;SDS011;48510;39.364;-9.378;2022-07-12T11:00:53;18.90;;;7.72;;
62459;SDS011;48510;39.364;-9.378;2022-07-12T11:02:59;15.23;;;7.57;;
62459;SDS011;48510;39.364;-9.378;2022-07-12T11:05:04;17.20;;;7.60;;
62459;SDS011;48510;39.364;-9.378;2022-07-12T11:07:05;17.50;;;7.47;;
62459;SDS011;48510;39.364;-9.378;2022-07-12T11:09:09;16.25;;;7.45;;
62459;SDS011;48510;39.364;-9.378;2022-07-12T11:11:12;16.80;;;7.72;;
62459;SDS011;48510;39.364;-9.378;2022-07-12T11:13:19;23.42;;;8.93;;
62459;SDS011;48510;39.364;-9.378;2022-07-12T11:15:22;19.80;;;7.65;;
62459;SDS011;48510;39.364;-9.378;2022-07-12T11:17:26;18.85;;;9.07;;
62459;SDS011;48510;39.364;-9.378;2022-07-12T11:19:33;18.58;;;8.68;;
62459;SDS011;48510;39.364;-9.378;2022-07-12T11:21:35;20.38;;;8.38;;
62459;SDS011;48510;39.364;-9.378;2022-07-12T11:23:36;20.23;;;8.57;;
62459;SDS011;48510;39.364;-9.378;2022-07-12T11:25:41;21.13;;;8.30;;
62459;SDS011;48510;39.364;-9.378;2022-07-12T11:27:41;17.83;;;7.45;;
62459;SDS011;48510;39.364;-9.378;2022-07-12T11:29:55;21.33;;;7.75;;
62459;SDS011;48510;39.364;-9.378;2022-07-12T11:32:01;16.30;;;7.50;;
62459;SDS011;48510;39.364;-9.378;2022-07-12T11:34:04;14.15;;;7.43;;
62459;SDS011;48510;39.364;-9.378;2022-07-12T11:36:06;20.17;;;8.35;;
62459;SDS011;48510;39.364;-9.378;2022-07-12T11:38:08;22.17;;;8.38;;
62459;SDS011;48510;39.364;-9.378;2022-07-12T11:40:11;21.45;;;8.27;;
62459;SDS011;48510;39.364;-9.378;2022-07-12T11:42:12;16.35;;;7.43;;
62459;SDS011;48510;39.364;-9.378;2022-07-12T11:44:13;16.85;;;7.63;;
62459;SDS011;48510;39.364;-9.378;2022-07-12T11:46:14;21.73;;;7.72;;
62459;SDS011;48510;39.364;-9.378;2022-07-12T11:48:16;19.45;;;7.95;;
62459;SDS011;48510;39.364;-9.378;2022-07-12T11:50:17;17.45;;;7.55;;
62459;SDS011;48510;39.364;-9.378;2022-07-12T11:52:19;23.45;;;7.85;;
62459;SDS011;48510;39.364;-9.378;2022-07-12T11:54:24;18.83;;;7.57;;
62459;SDS011;48510;39.364;-9.378;2022-07-12T11:56:29;26.48;;;8.10;;
62459;SDS011;48510;39.364;-9.378;2022-07-12T11:58:31;18.58;;;7.38;;
62459;SDS011;48510;39.364;-9.378;2022-07-12T12:00:32;23.58;;;8.65;;
62459;SDS011;48510;39.364;-9.378;2022-07-12T12:02:33;21.40;;;9.18;;
62459;SDS011;48510;39.364;-9.378;2022-07-12T12:04:50;23.08;;;9.05;;